sensor_id;sensor_type;location;lat;lon;timestamp;temperature;humidity
20066;DHT22;10193;48.884;9.182;2024-03-22T00:01:47;12.60;71.60
20066;DHT22;10193;48.884;9.182;2024-03-22T00:04:16;12.50;71.60
20066;DHT22;10193;48.884;9.182;2024-03-22T00:06:47;12.40;71.60
20066;DHT22;10193;48.884;9.182;2024-03-22T00:09:18;12.40;71.70
20066;DHT22;10193;48.884;9.182;2024-03-22T00:11:48;12.40;71.80
20066;DHT22;10193;48.884;9.182;2024-03-22T00:14:16;12.30;71.80
20066;DHT22;10193;48.884;9.182;2024-03-22T00:16:50;12.30;71.90
20066;DHT22;10193;48.884;9.182;2024-03-22T00:19:23;12.20;72.00
20066;DHT22;10193;48.884;9.182;2024-03-22T00:21:50;12.20;72.20
20066;DHT22;10193;48.884;9.182;2024-03-22T00:24:26;12.10;72.10
20066;DHT22;10193;48.884;9.182;2024-03-22T00:26:53;12.10;72.20
20066;DHT22;10193;48.884;9.182;2024-03-22T00:29:21;12.10;72.30
20066;DHT22;10193;48.884;9.182;2024-03-22T00:31:50;12.00;72.20
20066;DHT22;10193;48.884;9.182;2024-03-22T00:34:19;12.00;72.20
20066;DHT22;10193;48.884;9.182;2024-03-22T00:36:49;11.90;72.10
20066;DHT22;10193;48.884;9.182;2024-03-22T00:39:18;11.90;72.20
20066;DHT22;10193;48.884;9.182;2024-03-22T00:41:50;11.80;72.10
20066;DHT22;10193;48.884;9.182;2024-03-22T00:44:18;11.80;72.30
20066;DHT22;10193;48.884;9.182;2024-03-22T00:46:47;11.80;72.30
20066;DHT22;10193;48.884;9.182;2024-03-22T00:49:20;11.70;72.30
20066;DHT22;10193;48.884;9.182;2024-03-22T00:51:47;11.70;72.40
20066;DHT22;10193;48.884;9.182;2024-03-22T00:54:15;11.70;72.50
20066;DHT22;10193;48.884;9.182;2024-03-22T00:56:43;11.60;72.50
20066;DHT22;10193;48.884;9.182;2024-03-22T00:59:11;11.60;72.60
20066;DHT22;10193;48.884;9.182;2024-03-22T01:01:40;11.60;72.70
20066;DHT22;10193;48.884;9.182;2024-03-22T01:04:11;11.50;72.60
20066;DHT22;10193;48.884;9.182;2024-03-22T01:06:40;11.50;72.70
20066;DHT22;10193;48.884;9.182;2024-03-22T01:09:10;11.50;72.80
20066;DHT22;10193;48.884;9.182;2024-03-22T01:11:38;11.40;72.80
20066;DHT22;10193;48.884;9.182;2024-03-22T01:14:06;11.40;72.80
20066;DHT22;10193;48.884;9.182;2024-03-22T01:16:33;11.40;73.00
20066;DHT22;10193;48.884;9.182;2024-03-22T01:19:04;11.40;73.10
20066;DHT22;10193;48.884;9.182;2024-03-22T01:21:34;11.30;73.00
20066;DHT22;10193;48.884;9.182;2024-03-22T01:24:04;11.30;72.90
20066;DHT22;10193;48.884;9.182;2024-03-22T01:26:31;11.20;72.80
20066;DHT22;10193;48.884;9.182;2024-03-22T01:29:05;11.20;73.00
20066;DHT22;10193;48.884;9.182;2024-03-22T01:31:34;11.20;73.10
20066;DHT22;10193;48.884;9.182;2024-03-22T01:34:03;11.20;73.20
20066;DHT22;10193;48.884;9.182;2024-03-22T01:36:36;11.10;73.20
20066;DHT22;10193;48.884;9.182;2024-03-22T01:39:08;11.10;73.20
20066;DHT22;10193;48.884;9.182;2024-03-22T01:41:35;11.10;73.20
20066;DHT22;10193;48.884;9.182;2024-03-22T01:44:03;11.00;73.20
20066;DHT22;10193;48.884;9.182;2024-03-22T01:46:32;11.00;73.40
20066;DHT22;10193;48.884;9.182;2024-03-22T01:49:01;11.00;73.60
20066;DHT22;10193;48.884;9.182;2024-03-22T01:51:28;11.00;73.70
20066;DHT22;10193;48.884;9.182;2024-03-22T01:53:57;10.90;73.70
20066;DHT22;10193;48.884;9.182;2024-03-22T01:56:30;10.90;73.70
20066;DHT22;10193;48.884;9.182;2024-03-22T01:59:02;10.80;73.60
20066;DHT22;10193;48.884;9.182;2024-03-22T02:01:28;10.80;73.60
20066;DHT22;10193;48.884;9.182;2024-03-22T02:03:56;10.80;73.70
20066;DHT22;10193;48.884;9.182;2024-03-22T02:06:24;10.70;73.60
20066;DHT22;10193;48.884;9.182;2024-03-22T02:08:52;10.70;73.60
20066;DHT22;10193;48.884;9.182;2024-03-22T02:11:20;10.60;73.50
20066;DHT22;10193;48.884;9.182;2024-03-22T02:13:56;10.60;73.60
20066;DHT22;10193;48.884;9.182;2024-03-22T02:16:23;10.50;73.60
20066;DHT22;10193;48.884;9.182;2024-03-22T02:18:56;10.40;73.60
20066;DHT22;10193;48.884;9.182;2024-03-22T02:21:23;10.40;73.60
20066;DHT22;10193;48.884;9.182;2024-03-22T02:23:56;10.40;73.70
20066;DHT22;10193;48.884;9.182;2024-03-22T02:26:23;10.30;73.70
20066;DHT22;10193;48.884;9.182;2024-03-22T02:28:53;10.30;73.70
20066;DHT22;10193;48.884;9.182;2024-03-22T02:31:20;10.20;73.80
20066;DHT22;10193;48.884;9.182;2024-03-22T02:33:52;10.20;73.90
20066;DHT22;10193;48.884;9.182;2024-03-22T02:36:19;10.10;73.80
20066;DHT22;10193;48.884;9.182;2024-03-22T02:38:51;10.10;73.90
20066;DHT22;10193;48.884;9.182;2024-03-22T02:41:27;10.00;73.90
20066;DHT22;10193;48.884;9.182;2024-03-22T02:43:55;10.00;74.00
20066;DHT22;10193;48.884;9.182;2024-03-22T02:46:22;10.00;74.00
20066;DHT22;10193;48.884;9.182;2024-03-22T02:48:54;10.00;74.30
20066;DHT22;10193;48.884;9.182;2024-03-22T02:51:23;9.90;75.60
20066;DHT22;10193;48.884;9.182;2024-03-22T02:53:55;9.90;75.60
20066;DHT22;10193;48.884;9.182;2024-03-22T02:56:30;9.90;75.60
20066;DHT22;10193;48.884;9.182;2024-03-22T02:58:59;9.80;75.60
20066;DHT22;10193;48.884;9.182;2024-03-22T03:01:26;9.80;75.70
20066;DHT22;10193;48.884;9.182;2024-03-22T03:03:54;9.80;75.80
20066;DHT22;10193;48.884;9.182;2024-03-22T03:06:24;9.80;75.90
20066;DHT22;10193;48.884;9.182;2024-03-22T03:08:55;9.80;76.10
20066;DHT22;10193;48.884;9.182;2024-03-22T03:11:22;9.80;76.20
20066;DHT22;10193;48.884;9.182;2024-03-22T03:13:53;9.80;76.30
20066;DHT22;10193;48.884;9.182;2024-03-22T03:16:19;9.80;76.40
20066;DHT22;10193;48.884;9.182;2024-03-22T03:18:49;9.80;76.50
20066;DHT22;10193;48.884;9.182;2024-03-22T03:21:18;9.80;76.70
20066;DHT22;10193;48.884;9.182;2024-03-22T03:23:46;9.80;76.80
20066;DHT22;10193;48.884;9.182;2024-03-22T03:26:13;9.80;76.80
20066;DHT22;10193;48.884;9.182;2024-03-22T03:28:42;9.80;76.90
20066;DHT22;10193;48.884;9.182;2024-03-22T03:31:11;9.80;77.00
20066;DHT22;10193;48.884;9.182;2024-03-22T03:33:39;9.80;77.10
20066;DHT22;10193;48.884;9.182;2024-03-22T03:36:10;9.80;77.10
20066;DHT22;10193;48.884;9.182;2024-03-22T03:38:40;9.80;77.20
20066;DHT22;10193;48.884;9.182;2024-03-22T03:41:07;9.80;77.20
20066;DHT22;10193;48.884;9.182;2024-03-22T03:43:35;9.80;77.30
20066;DHT22;10193;48.884;9.182;2024-03-22T03:46:03;9.90;77.40
20066;DHT22;10193;48.884;9.182;2024-03-22T03:48:41;9.90;77.40
20066;DHT22;10193;48.884;9.182;2024-03-22T03:51:17;9.80;77.40
20066;DHT22;10193;48.884;9.182;2024-03-22T03:53:45;9.90;78.20
20066;DHT22;10193;48.884;9.182;2024-03-22T03:56:15;9.90;77.50
20066;DHT22;10193;48.884;9.182;2024-03-22T03:58:46;9.90;77.60
20066;DHT22;10193;48.884;9.182;2024-03-22T04:01:14;9.90;77.60
20066;DHT22;10193;48.884;9.182;2024-03-22T04:03:45;9.90;77.60
20066;DHT22;10193;48.884;9.182;2024-03-22T04:06:13;10.00;76.60
20066;DHT22;10193;48.884;9.182;2024-03-22T04:08:43;10.00;76.70
20066;DHT22;10193;48.884;9.182;2024-03-22T04:11:10;10.00;77.50
20066;DHT22;10193;48.884;9.182;2024-03-22T04:13:54;10.00;76.70
20066;DHT22;10193;48.884;9.182;2024-03-22T04:16:21;10.00;76.70
20066;DHT22;10193;48.884;9.182;2024-03-22T04:18:51;10.10;76.80
20066;DHT22;10193;48.884;9.182;2024-03-22T04:21:21;10.10;76.80
20066;DHT22;10193;48.884;9.182;2024-03-22T04:23:52;10.10;76.80
20066;DHT22;10193;48.884;9.182;2024-03-22T04:26:19;10.10;76.80
20066;DHT22;10193;48.884;9.182;2024-03-22T04:28:49;10.10;76.80
20066;DHT22;10193;48.884;9.182;2024-03-22T04:31:16;10.10;76.90
20066;DHT22;10193;48.884;9.182;2024-03-22T04:33:45;10.20;77.10
20066;DHT22;10193;48.884;9.182;2024-03-22T04:36:17;10.10;77.00
20066;DHT22;10193;48.884;9.182;2024-03-22T04:38:52;10.20;77.20
20066;DHT22;10193;48.884;9.182;2024-03-22T04:41:25;10.20;77.20
20066;DHT22;10193;48.884;9.182;2024-03-22T04:43:56;10.30;77.40
20066;DHT22;10193;48.884;9.182;2024-03-22T04:46:26;10.30;77.40
20066;DHT22;10193;48.884;9.182;2024-03-22T04:48:58;10.30;77.40
20066;DHT22;10193;48.884;9.182;2024-03-22T04:51:28;10.30;77.40
20066;DHT22;10193;48.884;9.182;2024-03-22T04:54:02;10.30;77.30
20066;DHT22;10193;48.884;9.182;2024-03-22T04:56:29;10.40;77.40
20066;DHT22;10193;48.884;9.182;2024-03-22T04:59:00;10.40;77.40
20066;DHT22;10193;48.884;9.182;2024-03-22T05:01:30;10.40;77.40
20066;DHT22;10193;48.884;9.182;2024-03-22T05:03:58;10.40;77.40
20066;DHT22;10193;48.884;9.182;2024-03-22T05:06:24;10.50;77.50
20066;DHT22;10193;48.884;9.182;2024-03-22T05:08:55;10.50;77.50
20066;DHT22;10193;48.884;9.182;2024-03-22T05:11:25;10.50;77.40
20066;DHT22;10193;48.884;9.182;2024-03-22T05:13:57;10.50;77.30
20066;DHT22;10193;48.884;9.182;2024-03-22T05:16:26;10.50;77.30
20066;DHT22;10193;48.884;9.182;2024-03-22T05:18:54;10.50;77.30
20066;DHT22;10193;48.884;9.182;2024-03-22T05:21:24;10.60;77.30
20066;DHT22;10193;48.884;9.182;2024-03-22T05:23:54;10.60;77.30
20066;DHT22;10193;48.884;9.182;2024-03-22T05:26:21;10.60;77.30
20066;DHT22;10193;48.884;9.182;2024-03-22T05:28:49;10.60;77.20
20066;DHT22;10193;48.884;9.182;2024-03-22T05:31:16;10.60;77.20
20066;DHT22;10193;48.884;9.182;2024-03-22T05:33:45;10.50;77.10
20066;DHT22;10193;48.884;9.182;2024-03-22T05:36:16;10.50;77.10
20066;DHT22;10193;48.884;9.182;2024-03-22T05:38:45;10.50;77.10
20066;DHT22;10193;48.884;9.182;2024-03-22T05:41:17;10.50;77.10
20066;DHT22;10193;48.884;9.182;2024-03-22T05:43:51;10.50;77.20
20066;DHT22;10193;48.884;9.182;2024-03-22T05:46:18;10.50;77.30
20066;DHT22;10193;48.884;9.182;2024-03-22T05:48:49;10.50;77.30
20066;DHT22;10193;48.884;9.182;2024-03-22T05:51:19;10.60;77.50
20066;DHT22;10193;48.884;9.182;2024-03-22T05:53:47;10.60;77.40
20066;DHT22;10193;48.884;9.182;2024-03-22T05:56:18;10.60;77.30
20066;DHT22;10193;48.884;9.182;2024-03-22T05:58:49;10.60;77.30
20066;DHT22;10193;48.884;9.182;2024-03-22T06:01:17;10.60;77.30
20066;DHT22;10193;48.884;9.182;2024-03-22T06:03:47;10.60;77.20
20066;DHT22;10193;48.884;9.182;2024-03-22T06:06:16;10.60;77.10
20066;DHT22;10193;48.884;9.182;2024-03-22T06:08:45;10.60;77.10
20066;DHT22;10193;48.884;9.182;2024-03-22T06:11:12;10.60;77.00
20066;DHT22;10193;48.884;9.182;2024-03-22T06:13:44;10.60;77.10
20066;DHT22;10193;48.884;9.182;2024-03-22T06:16:14;10.60;77.10
20066;DHT22;10193;48.884;9.182;2024-03-22T06:18:44;10.60;77.30
20066;DHT22;10193;48.884;9.182;2024-03-22T06:21:12;10.70;77.50
20066;DHT22;10193;48.884;9.182;2024-03-22T06:23:52;10.70;78.20
20066;DHT22;10193;48.884;9.182;2024-03-22T06:26:20;10.80;78.70
20066;DHT22;10193;48.884;9.182;2024-03-22T06:28:50;11.00;79.10
20066;DHT22;10193;48.884;9.182;2024-03-22T06:31:18;11.10;79.20
20066;DHT22;10193;48.884;9.182;2024-03-22T06:33:47;11.30;79.10
20066;DHT22;10193;48.884;9.182;2024-03-22T06:36:16;11.40;78.80
20066;DHT22;10193;48.884;9.182;2024-03-22T06:38:45;11.50;78.70
20066;DHT22;10193;48.884;9.182;2024-03-22T06:41:14;11.70;79.00
20066;DHT22;10193;48.884;9.182;2024-03-22T06:43:42;11.70;79.20
20066;DHT22;10193;48.884;9.182;2024-03-22T06:46:10;11.80;79.30
20066;DHT22;10193;48.884;9.182;2024-03-22T06:48:42;11.90;79.30
20066;DHT22;10193;48.884;9.182;2024-03-22T06:51:11;12.10;79.40
20066;DHT22;10193;48.884;9.182;2024-03-22T06:53:39;12.20;79.40
20066;DHT22;10193;48.884;9.182;2024-03-22T06:56:06;12.30;79.30
20066;DHT22;10193;48.884;9.182;2024-03-22T06:58:38;12.40;79.00
20066;DHT22;10193;48.884;9.182;2024-03-22T07:01:16;12.50;78.80
20066;DHT22;10193;48.884;9.182;2024-03-22T07:03:48;12.60;78.60
20066;DHT22;10193;48.884;9.182;2024-03-22T07:06:15;12.70;78.30
20066;DHT22;10193;48.884;9.182;2024-03-22T07:08:44;12.70;78.00
20066;DHT22;10193;48.884;9.182;2024-03-22T07:11:11;12.80;77.80
20066;DHT22;10193;48.884;9.182;2024-03-22T07:13:44;12.80;77.70
20066;DHT22;10193;48.884;9.182;2024-03-22T07:16:12;12.80;77.50
20066;DHT22;10193;48.884;9.182;2024-03-22T07:18:43;12.90;77.60
20066;DHT22;10193;48.884;9.182;2024-03-22T07:21:13;12.90;77.60
20066;DHT22;10193;48.884;9.182;2024-03-22T07:23:50;12.90;77.60
20066;DHT22;10193;48.884;9.182;2024-03-22T07:26:18;13.00;77.30
20066;DHT22;10193;48.884;9.182;2024-03-22T07:28:48;13.00;77.60
20066;DHT22;10193;48.884;9.182;2024-03-22T07:31:15;13.00;77.60
20066;DHT22;10193;48.884;9.182;2024-03-22T07:33:45;13.10;77.70
20066;DHT22;10193;48.884;9.182;2024-03-22T07:36:18;13.10;77.60
20066;DHT22;10193;48.884;9.182;2024-03-22T07:38:50;13.10;77.40
20066;DHT22;10193;48.884;9.182;2024-03-22T07:41:17;13.20;77.70
20066;DHT22;10193;48.884;9.182;2024-03-22T07:43:45;13.20;77.70
20066;DHT22;10193;48.884;9.182;2024-03-22T07:46:13;13.20;77.70
20066;DHT22;10193;48.884;9.182;2024-03-22T07:48:47;13.20;77.80
20066;DHT22;10193;48.884;9.182;2024-03-22T07:51:18;13.30;78.10
20066;DHT22;10193;48.884;9.182;2024-03-22T07:53:50;13.40;78.20
20066;DHT22;10193;48.884;9.182;2024-03-22T07:56:18;13.50;78.60
20066;DHT22;10193;48.884;9.182;2024-03-22T07:58:46;13.50;78.70
20066;DHT22;10193;48.884;9.182;2024-03-22T08:01:14;13.60;78.80
20066;DHT22;10193;48.884;9.182;2024-03-22T08:03:44;13.70;78.90
20066;DHT22;10193;48.884;9.182;2024-03-22T08:06:12;13.80;79.00
20066;DHT22;10193;48.884;9.182;2024-03-22T08:08:42;13.90;79.00
20066;DHT22;10193;48.884;9.182;2024-03-22T08:11:14;14.00;79.30
20066;DHT22;10193;48.884;9.182;2024-03-22T08:13:42;14.10;79.20
20066;DHT22;10193;48.884;9.182;2024-03-22T08:16:10;14.20;79.30
20066;DHT22;10193;48.884;9.182;2024-03-22T08:18:42;14.30;79.20
20066;DHT22;10193;48.884;9.182;2024-03-22T08:21:09;14.50;79.40
20066;DHT22;10193;48.884;9.182;2024-03-22T08:23:38;14.70;79.70
20066;DHT22;10193;48.884;9.182;2024-03-22T08:26:10;14.80;79.60
20066;DHT22;10193;48.884;9.182;2024-03-22T08:28:43;15.00;79.80
20066;DHT22;10193;48.884;9.182;2024-03-22T08:31:11;15.10;79.70
20066;DHT22;10193;48.884;9.182;2024-03-22T08:33:39;15.30;79.90
20066;DHT22;10193;48.884;9.182;2024-03-22T08:36:09;15.50;80.00
20066;DHT22;10193;48.884;9.182;2024-03-22T08:38:42;15.70;79.80
20066;DHT22;10193;48.884;9.182;2024-03-22T08:41:09;15.80;79.30
20066;DHT22;10193;48.884;9.182;2024-03-22T08:43:40;16.00;79.20
20066;DHT22;10193;48.884;9.182;2024-03-22T08:46:10;16.10;79.20
20066;DHT22;10193;48.884;9.182;2024-03-22T08:48:44;16.30;79.00
20066;DHT22;10193;48.884;9.182;2024-03-22T08:51:14;16.40;79.20
20066;DHT22;10193;48.884;9.182;2024-03-22T08:53:44;16.50;78.40
20066;DHT22;10193;48.884;9.182;2024-03-22T08:56:11;16.70;78.10
20066;DHT22;10193;48.884;9.182;2024-03-22T08:58:40;16.70;77.80
20066;DHT22;10193;48.884;9.182;2024-03-22T09:01:07;16.80;77.50
20066;DHT22;10193;48.884;9.182;2024-03-22T09:03:38;16.90;77.20
20066;DHT22;10193;48.884;9.182;2024-03-22T09:06:05;17.00;77.30
20066;DHT22;10193;48.884;9.182;2024-03-22T09:08:36;17.00;77.00
20066;DHT22;10193;48.884;9.182;2024-03-22T09:11:08;17.10;77.00
20066;DHT22;10193;48.884;9.182;2024-03-22T09:13:38;17.10;76.70
20066;DHT22;10193;48.884;9.182;2024-03-22T09:16:05;17.10;76.80
20066;DHT22;10193;48.884;9.182;2024-03-22T09:18:34;17.20;76.90
20066;DHT22;10193;48.884;9.182;2024-03-22T09:21:02;17.30;77.10
20066;DHT22;10193;48.884;9.182;2024-03-22T09:23:30;17.40;77.40
20066;DHT22;10193;48.884;9.182;2024-03-22T09:25:58;17.50;77.50
20066;DHT22;10193;48.884;9.182;2024-03-22T09:28:28;17.60;77.40
20066;DHT22;10193;48.884;9.182;2024-03-22T09:30:56;17.70;77.30
20066;DHT22;10193;48.884;9.182;2024-03-22T09:33:29;17.80;77.40
20066;DHT22;10193;48.884;9.182;2024-03-22T09:35:57;17.90;77.10
20066;DHT22;10193;48.884;9.182;2024-03-22T09:38:24;18.00;76.90
20066;DHT22;10193;48.884;9.182;2024-03-22T09:40:52;18.20;77.00
20066;DHT22;10193;48.884;9.182;2024-03-22T09:43:23;18.20;76.80
20066;DHT22;10193;48.884;9.182;2024-03-22T09:45:53;18.40;76.50
20066;DHT22;10193;48.884;9.182;2024-03-22T09:48:23;18.50;76.40
20066;DHT22;10193;48.884;9.182;2024-03-22T09:50:53;18.60;76.40
20066;DHT22;10193;48.884;9.182;2024-03-22T09:53:22;18.70;75.90
20066;DHT22;10193;48.884;9.182;2024-03-22T09:55:49;18.80;76.40
20066;DHT22;10193;48.884;9.182;2024-03-22T09:58:18;18.90;75.90
20066;DHT22;10193;48.884;9.182;2024-03-22T10:00:52;19.00;75.60
20066;DHT22;10193;48.884;9.182;2024-03-22T10:03:26;19.20;75.60
20066;DHT22;10193;48.884;9.182;2024-03-22T10:05:53;19.30;75.20
20066;DHT22;10193;48.884;9.182;2024-03-22T10:08:30;19.40;74.60
20066;DHT22;10193;48.884;9.182;2024-03-22T10:11:03;19.50;74.10
20066;DHT22;10193;48.884;9.182;2024-03-22T10:13:31;19.60;73.90
20066;DHT22;10193;48.884;9.182;2024-03-22T10:15:58;19.60;73.70
20066;DHT22;10193;48.884;9.182;2024-03-22T10:18:26;19.70;73.40
20066;DHT22;10193;48.884;9.182;2024-03-22T10:20:59;19.80;73.00
20066;DHT22;10193;48.884;9.182;2024-03-22T10:23:26;19.80;71.60
20066;DHT22;10193;48.884;9.182;2024-03-22T10:25:52;19.80;72.50
20066;DHT22;10193;48.884;9.182;2024-03-22T10:28:19;19.90;72.50
20066;DHT22;10193;48.884;9.182;2024-03-22T10:30:44;19.90;72.10
20066;DHT22;10193;48.884;9.182;2024-03-22T10:33:15;19.90;72.00
20066;DHT22;10193;48.884;9.182;2024-03-22T10:35:41;20.00;71.80
20066;DHT22;10193;48.884;9.182;2024-03-22T10:38:10;20.00;71.80
20066;DHT22;10193;48.884;9.182;2024-03-22T10:40:39;20.00;71.80
20066;DHT22;10193;48.884;9.182;2024-03-22T10:43:05;20.10;71.60
20066;DHT22;10193;48.884;9.182;2024-03-22T10:45:32;20.10;71.50
20066;DHT22;10193;48.884;9.182;2024-03-22T10:48:00;20.20;71.30
20066;DHT22;10193;48.884;9.182;2024-03-22T10:50:32;20.20;71.10
20066;DHT22;10193;48.884;9.182;2024-03-22T10:53:03;20.20;70.50
20066;DHT22;10193;48.884;9.182;2024-03-22T10:55:33;20.20;70.70
20066;DHT22;10193;48.884;9.182;2024-03-22T10:58:00;20.30;71.10
20066;DHT22;10193;48.884;9.182;2024-03-22T11:00:29;20.30;70.70
20066;DHT22;10193;48.884;9.182;2024-03-22T11:02:57;20.40;70.40
20066;DHT22;10193;48.884;9.182;2024-03-22T11:05:23;20.40;70.60
20066;DHT22;10193;48.884;9.182;2024-03-22T11:08:00;20.50;70.40
20066;DHT22;10193;48.884;9.182;2024-03-22T11:10:28;20.50;68.50
20066;DHT22;10193;48.884;9.182;2024-03-22T11:13:00;20.50;69.50
20066;DHT22;10193;48.884;9.182;2024-03-22T11:15:29;20.60;69.30
20066;DHT22;10193;48.884;9.182;2024-03-22T11:17:55;20.60;69.40
20066;DHT22;10193;48.884;9.182;2024-03-22T11:20:21;20.70;69.50
20066;DHT22;10193;48.884;9.182;2024-03-22T11:22:48;20.70;69.60
20066;DHT22;10193;48.884;9.182;2024-03-22T11:25:15;20.80;69.50
20066;DHT22;10193;48.884;9.182;2024-03-22T11:27:42;20.80;69.20
20066;DHT22;10193;48.884;9.182;2024-03-22T11:30:08;20.90;69.10
20066;DHT22;10193;48.884;9.182;2024-03-22T11:32:35;20.90;68.90
20066;DHT22;10193;48.884;9.182;2024-03-22T11:35:07;21.00;68.90
20066;DHT22;10193;48.884;9.182;2024-03-22T11:37:36;21.00;68.70
20066;DHT22;10193;48.884;9.182;2024-03-22T11:40:02;21.10;68.20
20066;DHT22;10193;48.884;9.182;2024-03-22T11:42:33;21.10;68.10
20066;DHT22;10193;48.884;9.182;2024-03-22T11:44:59;21.20;68.00
20066;DHT22;10193;48.884;9.182;2024-03-22T11:47:26;21.20;68.10
20066;DHT22;10193;48.884;9.182;2024-03-22T11:49:52;21.30;68.00
20066;DHT22;10193;48.884;9.182;2024-03-22T11:52:24;21.40;68.00
20066;DHT22;10193;48.884;9.182;2024-03-22T11:54:51;21.50;67.70
20066;DHT22;10193;48.884;9.182;2024-03-22T11:57:18;21.50;67.90
20066;DHT22;10193;48.884;9.182;2024-03-22T11:59:46;21.60;67.40
20066;DHT22;10193;48.884;9.182;2024-03-22T12:02:11;21.70;66.90
20066;DHT22;10193;48.884;9.182;2024-03-22T12:04:41;21.70;66.80
20066;DHT22;10193;48.884;9.182;2024-03-22T12:07:10;21.80;66.60
20066;DHT22;10193;48.884;9.182;2024-03-22T12:09:37;21.90;67.40
20066;DHT22;10193;48.884;9.182;2024-03-22T12:12:04;21.90;66.50
20066;DHT22;10193;48.884;9.182;2024-03-22T12:14:31;22.00;66.50
20066;DHT22;10193;48.884;9.182;2024-03-22T12:16:58;22.10;66.00
20066;DHT22;10193;48.884;9.182;2024-03-22T12:19:25;22.20;65.80
20066;DHT22;10193;48.884;9.182;2024-03-22T12:21:51;22.20;65.50
20066;DHT22;10193;48.884;9.182;2024-03-22T12:24:17;22.20;64.90
20066;DHT22;10193;48.884;9.182;2024-03-22T12:26:43;22.30;64.70
20066;DHT22;10193;48.884;9.182;2024-03-22T12:29:10;22.30;64.80
20066;DHT22;10193;48.884;9.182;2024-03-22T12:31:37;22.30;64.70
20066;DHT22;10193;48.884;9.182;2024-03-22T12:34:05;22.30;64.70
20066;DHT22;10193;48.884;9.182;2024-03-22T12:36:31;22.40;64.60
20066;DHT22;10193;48.884;9.182;2024-03-22T12:38:57;22.50;64.60
20066;DHT22;10193;48.884;9.182;2024-03-22T12:41:23;22.50;64.10
20066;DHT22;10193;48.884;9.182;2024-03-22T12:43:50;22.50;63.60
20066;DHT22;10193;48.884;9.182;2024-03-22T12:46:16;22.50;63.40
20066;DHT22;10193;48.884;9.182;2024-03-22T12:48:42;22.50;62.80
20066;DHT22;10193;48.884;9.182;2024-03-22T12:51:09;22.50;62.20
20066;DHT22;10193;48.884;9.182;2024-03-22T12:53:37;22.40;61.70
20066;DHT22;10193;48.884;9.182;2024-03-22T12:56:03;22.40;61.60
20066;DHT22;10193;48.884;9.182;2024-03-22T12:58:29;22.30;61.40
20066;DHT22;10193;48.884;9.182;2024-03-22T13:00:55;22.20;61.50
20066;DHT22;10193;48.884;9.182;2024-03-22T13:03:22;22.20;61.60
20066;DHT22;10193;48.884;9.182;2024-03-22T13:05:48;22.10;61.70
20066;DHT22;10193;48.884;9.182;2024-03-22T13:08:16;22.10;61.80
20066;DHT22;10193;48.884;9.182;2024-03-22T13:10:42;22.10;61.80
20066;DHT22;10193;48.884;9.182;2024-03-22T13:13:10;22.20;62.00
20066;DHT22;10193;48.884;9.182;2024-03-22T13:15:36;22.20;62.00
20066;DHT22;10193;48.884;9.182;2024-03-22T13:18:03;22.20;62.00
20066;DHT22;10193;48.884;9.182;2024-03-22T13:20:29;22.30;61.70
20066;DHT22;10193;48.884;9.182;2024-03-22T13:22:56;22.30;61.30
20066;DHT22;10193;48.884;9.182;2024-03-22T13:25:24;22.30;61.10
20066;DHT22;10193;48.884;9.182;2024-03-22T13:27:50;22.30;60.70
20066;DHT22;10193;48.884;9.182;2024-03-22T13:30:16;22.30;60.50
20066;DHT22;10193;48.884;9.182;2024-03-22T13:32:42;22.20;60.00
20066;DHT22;10193;48.884;9.182;2024-03-22T13:35:09;22.20;60.10
20066;DHT22;10193;48.884;9.182;2024-03-22T13:37:35;22.20;60.30
20066;DHT22;10193;48.884;9.182;2024-03-22T13:40:01;22.20;60.20
20066;DHT22;10193;48.884;9.182;2024-03-22T13:42:29;22.20;59.70
20066;DHT22;10193;48.884;9.182;2024-03-22T13:44:56;22.10;59.40
20066;DHT22;10193;48.884;9.182;2024-03-22T13:47:22;22.10;59.30
20066;DHT22;10193;48.884;9.182;2024-03-22T13:49:49;22.10;59.30
20066;DHT22;10193;48.884;9.182;2024-03-22T13:52:17;22.00;59.20
20066;DHT22;10193;48.884;9.182;2024-03-22T13:56:00;22.00;59.10
20066;DHT22;10193;48.884;9.182;2024-03-22T13:57:59;21.90;58.60
20066;DHT22;10193;48.884;9.182;2024-03-22T14:00:26;21.90;59.40
20066;DHT22;10193;48.884;9.182;2024-03-22T14:02:53;21.90;59.10
20066;DHT22;10193;48.884;9.182;2024-03-22T14:05:20;21.80;58.80
20066;DHT22;10193;48.884;9.182;2024-03-22T14:07:49;21.80;58.60
20066;DHT22;10193;48.884;9.182;2024-03-22T14:10:15;21.80;58.40
20066;DHT22;10193;48.884;9.182;2024-03-22T14:12:42;21.70;58.50
20066;DHT22;10193;48.884;9.182;2024-03-22T14:15:09;21.70;58.20
20066;DHT22;10193;48.884;9.182;2024-03-22T14:17:36;21.60;58.00
20066;DHT22;10193;48.884;9.182;2024-03-22T14:20:02;21.50;58.50
20066;DHT22;10193;48.884;9.182;2024-03-22T14:22:31;21.50;57.10
20066;DHT22;10193;48.884;9.182;2024-03-22T14:24:57;21.40;56.50
20066;DHT22;10193;48.884;9.182;2024-03-22T14:27:24;21.30;56.00
20066;DHT22;10193;48.884;9.182;2024-03-22T14:29:50;21.30;56.30
20066;DHT22;10193;48.884;9.182;2024-03-22T14:32:18;21.20;56.00
20066;DHT22;10193;48.884;9.182;2024-03-22T14:34:44;21.20;56.30
20066;DHT22;10193;48.884;9.182;2024-03-22T14:37:11;21.10;56.20
20066;DHT22;10193;48.884;9.182;2024-03-22T14:39:37;21.10;55.90
20066;DHT22;10193;48.884;9.182;2024-03-22T14:42:04;21.00;56.00
20066;DHT22;10193;48.884;9.182;2024-03-22T14:44:31;21.00;56.10
20066;DHT22;10193;48.884;9.182;2024-03-22T14:46:57;21.00;55.60
20066;DHT22;10193;48.884;9.182;2024-03-22T14:49:25;20.90;55.40
20066;DHT22;10193;48.884;9.182;2024-03-22T14:51:52;20.80;54.80
20066;DHT22;10193;48.884;9.182;2024-03-22T14:54:17;20.80;55.20
20066;DHT22;10193;48.884;9.182;2024-03-22T14:56:44;20.70;55.00
20066;DHT22;10193;48.884;9.182;2024-03-22T14:59:10;20.70;55.00
20066;DHT22;10193;48.884;9.182;2024-03-22T15:01:36;20.60;55.00
20066;DHT22;10193;48.884;9.182;2024-03-22T15:04:02;20.50;54.50
20066;DHT22;10193;48.884;9.182;2024-03-22T15:06:30;20.50;54.70
20066;DHT22;10193;48.884;9.182;2024-03-22T15:08:56;20.50;54.80
20066;DHT22;10193;48.884;9.182;2024-03-22T15:11:22;20.40;54.70
20066;DHT22;10193;48.884;9.182;2024-03-22T15:13:48;20.40;54.80
20066;DHT22;10193;48.884;9.182;2024-03-22T15:16:15;20.30;55.00
20066;DHT22;10193;48.884;9.182;2024-03-22T15:18:41;20.30;55.00
20066;DHT22;10193;48.884;9.182;2024-03-22T15:21:08;20.30;55.10
20066;DHT22;10193;48.884;9.182;2024-03-22T15:23:35;20.20;55.30
20066;DHT22;10193;48.884;9.182;2024-03-22T15:26:02;20.30;55.40
20066;DHT22;10193;48.884;9.182;2024-03-22T15:28:27;20.20;55.20
20066;DHT22;10193;48.884;9.182;2024-03-22T15:30:54;20.20;55.40
20066;DHT22;10193;48.884;9.182;2024-03-22T15:33:20;20.20;55.40
20066;DHT22;10193;48.884;9.182;2024-03-22T15:35:46;20.10;55.40
20066;DHT22;10193;48.884;9.182;2024-03-22T15:38:15;20.10;55.40
20066;DHT22;10193;48.884;9.182;2024-03-22T15:40:43;20.10;55.30
20066;DHT22;10193;48.884;9.182;2024-03-22T15:43:09;20.10;55.50